sensor_id;sensor_type;location;lat;lon;timestamp;P1;durP1;ratioP1;P2;durP2;ratioP2
70899;SDS011;67902;52.154;5.430;2023-05-10T00:00:07;39.42;;;9.65;;
70899;SDS011;67902;52.154;5.430;2023-05-10T00:02:35;31.13;;;10.90;;
70899;SDS011;67902;52.154;5.430;2023-05-10T00:05:02;27.08;;;10.38;;
70899;SDS011;67902;52.154;5.430;2023-05-10T00:07:28;30.80;;;11.20;;
70899;SDS011;67902;52.154;5.430;2023-05-10T00:09:55;27.60;;;10.60;;
70899;SDS011;67902;52.154;5.430;2023-05-10T00:12:21;26.35;;;9.90;;
70899;SDS011;67902;52.154;5.430;2023-05-10T00:14:47;34.83;;;8.80;;
70899;SDS011;67902;52.154;5.430;2023-05-10T00:17:14;60.55;;;8.65;;
70899;SDS011;67902;52.154;5.430;2023-05-10T00:19:40;28.92;;;9.40;;
70899;SDS011;67902;52.154;5.430;2023-05-10T00:22:07;25.67;;;9.43;;
70899;SDS011;67902;52.154;5.430;2023-05-10T00:24:33;23.60;;;8.40;;
70899;SDS011;67902;52.154;5.430;2023-05-10T00:27:00;27.48;;;9.88;;
70899;SDS011;67902;52.154;5.430;2023-05-10T00:29:26;28.45;;;10.65;;
70899;SDS011;67902;52.154;5.430;2023-05-10T00:34:20;30.67;;;12.15;;
70899;SDS011;67902;52.154;5.430;2023-05-10T00:36:47;31.85;;;12.50;;
70899;SDS011;67902;52.154;5.430;2023-05-10T00:39:14;35.70;;;12.18;;
70899;SDS011;67902;52.154;5.430;2023-05-10T00:41:40;34.70;;;13.93;;
70899;SDS011;67902;52.154;5.430;2023-05-10T00:44:06;41.33;;;15.45;;
70899;SDS011;67902;52.154;5.430;2023-05-10T00:46:33;37.50;;;13.48;;
70899;SDS011;67902;52.154;5.430;2023-05-10T00:49:00;38.47;;;15.57;;
70899;SDS011;67902;52.154;5.430;2023-05-10T00:51:27;43.53;;;15.40;;
70899;SDS011;67902;52.154;5.430;2023-05-10T00:53:54;51.28;;;16.70;;
70899;SDS011;67902;52.154;5.430;2023-05-10T00:56:22;54.45;;;17.15;;
70899;SDS011;67902;52.154;5.430;2023-05-10T00:58:49;48.45;;;16.90;;
70899;SDS011;67902;52.154;5.430;2023-05-10T01:01:16;54.60;;;17.67;;
70899;SDS011;67902;52.154;5.430;2023-05-10T01:03:42;52.00;;;18.50;;
70899;SDS011;67902;52.154;5.430;2023-05-10T01:06:09;59.38;;;20.38;;
70899;SDS011;67902;52.154;5.430;2023-05-10T01:08:36;52.53;;;17.65;;
70899;SDS011;67902;52.154;5.430;2023-05-10T01:11:03;63.92;;;20.30;;
70899;SDS011;67902;52.154;5.430;2023-05-10T01:16:04;58.42;;;18.85;;
70899;SDS011;67902;52.154;5.430;2023-05-10T01:18:41;59.65;;;20.00;;
70899;SDS011;67902;52.154;5.430;2023-05-10T01:21:23;60.17;;;19.10;;
70899;SDS011;67902;52.154;5.430;2023-05-10T01:32:57;54.53;;;18.45;;
70899;SDS011;67902;52.154;5.430;2023-05-10T01:35:35;56.97;;;19.50;;
70899;SDS011;67902;52.154;5.430;2023-05-10T01:40:35;58.90;;;19.35;;
70899;SDS011;67902;52.154;5.430;2023-05-10T01:43:07;59.00;;;19.25;;
70899;SDS011;67902;52.154;5.430;2023-05-10T01:45:47;50.60;;;18.55;;
70899;SDS011;67902;52.154;5.430;2023-05-10T01:48:19;59.58;;;19.23;;
70899;SDS011;67902;52.154;5.430;2023-05-10T01:50:47;56.30;;;19.42;;
70899;SDS011;67902;52.154;5.430;2023-05-10T01:53:17;64.10;;;20.25;;
70899;SDS011;67902;52.154;5.430;2023-05-10T01:55:46;59.65;;;19.27;;
70899;SDS011;67902;52.154;5.430;2023-05-10T01:58:17;60.42;;;18.85;;
70899;SDS011;67902;52.154;5.430;2023-05-10T02:00:47;59.30;;;19.65;;
70899;SDS011;67902;52.154;5.430;2023-05-10T02:03:16;54.47;;;19.05;;
70899;SDS011;67902;52.154;5.430;2023-05-10T02:05:46;60.25;;;19.40;;
70899;SDS011;67902;52.154;5.430;2023-05-10T02:08:15;52.97;;;19.02;;
70899;SDS011;67902;52.154;5.430;2023-05-10T02:10:45;62.05;;;20.58;;
70899;SDS011;67902;52.154;5.430;2023-05-10T02:13:12;62.45;;;19.00;;
70899;SDS011;67902;52.154;5.430;2023-05-10T02:15:41;53.85;;;18.25;;
70899;SDS011;67902;52.154;5.430;2023-05-10T02:18:09;55.83;;;19.17;;
70899;SDS011;67902;52.154;5.430;2023-05-10T02:20:37;61.38;;;18.88;;
70899;SDS011;67902;52.154;5.430;2023-05-10T02:23:04;60.05;;;19.25;;
70899;SDS011;67902;52.154;5.430;2023-05-10T02:25:33;59.65;;;18.77;;
70899;SDS011;67902;52.154;5.430;2023-05-10T02:28:01;53.83;;;19.40;;
70899;SDS011;67902;52.154;5.430;2023-05-10T02:30:31;59.42;;;19.83;;
70899;SDS011;67902;52.154;5.430;2023-05-10T02:33:00;54.95;;;18.80;;
70899;SDS011;67902;52.154;5.430;2023-05-10T02:35:29;57.55;;;19.35;;
70899;SDS011;67902;52.154;5.430;2023-05-10T02:37:59;62.47;;;20.20;;
70899;SDS011;67902;52.154;5.430;2023-05-10T02:40:26;55.83;;;19.50;;
70899;SDS011;67902;52.154;5.430;2023-05-10T02:42:54;67.28;;;20.25;;
70899;SDS011;67902;52.154;5.430;2023-05-10T02:45:23;56.67;;;18.80;;
70899;SDS011;67902;52.154;5.430;2023-05-10T02:47:54;62.53;;;21.20;;
70899;SDS011;67902;52.154;5.430;2023-05-10T02:50:21;55.65;;;17.95;;
70899;SDS011;67902;52.154;5.430;2023-05-10T02:52:51;57.65;;;19.15;;
70899;SDS011;67902;52.154;5.430;2023-05-10T02:55:25;60.38;;;19.48;;
70899;SDS011;67902;52.154;5.430;2023-05-10T02:57:59;62.30;;;19.25;;
70899;SDS011;67902;52.154;5.430;2023-05-10T03:00:27;68.05;;;20.50;;
70899;SDS011;67902;52.154;5.430;2023-05-10T03:02:53;62.60;;;19.60;;
70899;SDS011;67902;52.154;5.430;2023-05-10T03:05:20;55.42;;;18.80;;
70899;SDS011;67902;52.154;5.430;2023-05-10T03:07:47;65.60;;;20.33;;
70899;SDS011;67902;52.154;5.430;2023-05-10T03:10:14;66.07;;;19.88;;
70899;SDS011;67902;52.154;5.430;2023-05-10T03:15:22;62.85;;;18.95;;
70899;SDS011;67902;52.154;5.430;2023-05-10T03:21:03;63.22;;;17.83;;
70899;SDS011;67902;52.154;5.430;2023-05-10T03:23:35;57.67;;;17.45;;
70899;SDS011;67902;52.154;5.430;2023-05-10T03:26:07;63.35;;;19.38;;
70899;SDS011;67902;52.154;5.430;2023-05-10T03:31:01;60.17;;;18.15;;
70899;SDS011;67902;52.154;5.430;2023-05-10T03:33:30;55.80;;;17.65;;
70899;SDS011;67902;52.154;5.430;2023-05-10T03:35:56;67.07;;;20.60;;
70899;SDS011;67902;52.154;5.430;2023-05-10T03:38:23;68.30;;;19.23;;
70899;SDS011;67902;52.154;5.430;2023-05-10T03:40:49;77.15;;;19.17;;
70899;SDS011;67902;52.154;5.430;2023-05-10T03:43:16;67.93;;;17.40;;
70899;SDS011;67902;52.154;5.430;2023-05-10T03:45:42;72.90;;;20.23;;
70899;SDS011;67902;52.154;5.430;2023-05-10T03:48:08;60.50;;;17.88;;
70899;SDS011;67902;52.154;5.430;2023-05-10T03:50:35;70.03;;;18.33;;
70899;SDS011;67902;52.154;5.430;2023-05-10T03:53:01;58.53;;;17.63;;
70899;SDS011;67902;52.154;5.430;2023-05-10T03:55:28;76.07;;;20.35;;
70899;SDS011;67902;52.154;5.430;2023-05-10T03:57:55;73.10;;;19.13;;
70899;SDS011;67902;52.154;5.430;2023-05-10T04:00:22;71.68;;;20.52;;
70899;SDS011;67902;52.154;5.430;2023-05-10T04:02:48;68.38;;;20.02;;
70899;SDS011;67902;52.154;5.430;2023-05-10T04:05:15;70.10;;;19.98;;
70899;SDS011;67902;52.154;5.430;2023-05-10T04:07:41;73.18;;;20.20;;
70899;SDS011;67902;52.154;5.430;2023-05-10T04:10:08;81.97;;;21.30;;
70899;SDS011;67902;52.154;5.430;2023-05-10T04:12:34;81.88;;;21.08;;
70899;SDS011;67902;52.154;5.430;2023-05-10T04:15:01;80.10;;;20.52;;
70899;SDS011;67902;52.154;5.430;2023-05-10T04:17:27;77.07;;;20.15;;
70899;SDS011;67902;52.154;5.430;2023-05-10T04:19:54;78.20;;;22.15;;
70899;SDS011;67902;52.154;5.430;2023-05-10T04:22:21;85.75;;;21.35;;
70899;SDS011;67902;52.154;5.430;2023-05-10T04:24:48;72.45;;;19.33;;
70899;SDS011;67902;52.154;5.430;2023-05-10T04:27:14;67.50;;;20.10;;
70899;SDS011;67902;52.154;5.430;2023-05-10T04:29:40;74.03;;;20.00;;
70899;SDS011;67902;52.154;5.430;2023-05-10T04:32:07;70.68;;;20.80;;
70899;SDS011;67902;52.154;5.430;2023-05-10T04:34:34;78.20;;;22.02;;
70899;SDS011;67902;52.154;5.430;2023-05-10T04:37:00;83.50;;;21.67;;
70899;SDS011;67902;52.154;5.430;2023-05-10T04:39:27;75.65;;;20.83;;
70899;SDS011;67902;52.154;5.430;2023-05-10T04:41:53;78.75;;;20.55;;
70899;SDS011;67902;52.154;5.430;2023-05-10T04:44:20;75.32;;;20.55;;
70899;SDS011;67902;52.154;5.430;2023-05-10T04:46:46;79.68;;;21.85;;
70899;SDS011;67902;52.154;5.430;2023-05-10T04:49:13;73.47;;;21.25;;
70899;SDS011;67902;52.154;5.430;2023-05-10T04:51:40;77.57;;;21.95;;
70899;SDS011;67902;52.154;5.430;2023-05-10T04:54:07;79.20;;;20.45;;
70899;SDS011;67902;52.154;5.430;2023-05-10T04:56:33;80.53;;;21.73;;
70899;SDS011;67902;52.154;5.430;2023-05-10T04:59:00;81.30;;;20.83;;
70899;SDS011;67902;52.154;5.430;2023-05-10T05:01:26;82.07;;;20.55;;
70899;SDS011;67902;52.154;5.430;2023-05-10T05:03:53;96.72;;;22.90;;
70899;SDS011;67902;52.154;5.430;2023-05-10T05:06:19;82.97;;;22.38;;
70899;SDS011;67902;52.154;5.430;2023-05-10T05:08:51;77.55;;;21.38;;
70899;SDS011;67902;52.154;5.430;2023-05-10T05:11:17;76.10;;;21.58;;
70899;SDS011;67902;52.154;5.430;2023-05-10T05:13:44;85.43;;;22.77;;
70899;SDS011;67902;52.154;5.430;2023-05-10T05:16:10;79.40;;;21.38;;
70899;SDS011;67902;52.154;5.430;2023-05-10T05:18:37;86.30;;;23.27;;
70899;SDS011;67902;52.154;5.430;2023-05-10T05:21:13;75.00;;;22.10;;
70899;SDS011;67902;52.154;5.430;2023-05-10T05:23:43;72.82;;;20.77;;
70899;SDS011;67902;52.154;5.430;2023-05-10T05:26:10;76.60;;;23.25;;
70899;SDS011;67902;52.154;5.430;2023-05-10T05:28:36;68.25;;;22.85;;
70899;SDS011;67902;52.154;5.430;2023-05-10T05:31:04;68.45;;;20.75;;
70899;SDS011;67902;52.154;5.430;2023-05-10T05:33:31;61.58;;;21.80;;
70899;SDS011;67902;52.154;5.430;2023-05-10T05:36:00;58.53;;;20.20;;
70899;SDS011;67902;52.154;5.430;2023-05-10T05:38:27;64.35;;;21.17;;
70899;SDS011;67902;52.154;5.430;2023-05-10T05:40:53;68.75;;;20.60;;
70899;SDS011;67902;52.154;5.430;2023-05-10T05:43:19;71.70;;;21.73;;
70899;SDS011;67902;52.154;5.430;2023-05-10T05:45:46;73.45;;;21.20;;
70899;SDS011;67902;52.154;5.430;2023-05-10T05:48:12;70.53;;;20.80;;
70899;SDS011;67902;52.154;5.430;2023-05-10T05:50:39;64.38;;;19.95;;
70899;SDS011;67902;52.154;5.430;2023-05-10T05:53:05;68.68;;;20.83;;
70899;SDS011;67902;52.154;5.430;2023-05-10T05:55:31;73.55;;;21.35;;
70899;SDS011;67902;52.154;5.430;2023-05-10T05:57:58;59.47;;;19.33;;
70899;SDS011;67902;52.154;5.430;2023-05-10T06:00:25;57.30;;;19.55;;
70899;SDS011;67902;52.154;5.430;2023-05-10T06:02:52;61.97;;;20.45;;
70899;SDS011;67902;52.154;5.430;2023-05-10T06:05:18;54.40;;;18.48;;
70899;SDS011;67902;52.154;5.430;2023-05-10T06:07:45;52.35;;;19.25;;
70899;SDS011;67902;52.154;5.430;2023-05-10T06:10:12;56.92;;;19.63;;
70899;SDS011;67902;52.154;5.430;2023-05-10T06:12:38;53.28;;;18.67;;
70899;SDS011;67902;52.154;5.430;2023-05-10T06:15:05;58.03;;;19.20;;
70899;SDS011;67902;52.154;5.430;2023-05-10T06:17:31;56.30;;;19.63;;
70899;SDS011;67902;52.154;5.430;2023-05-10T06:19:58;54.58;;;18.73;;
70899;SDS011;67902;52.154;5.430;2023-05-10T06:22:24;58.97;;;19.25;;
70899;SDS011;67902;52.154;5.430;2023-05-10T06:24:51;51.20;;;18.60;;
70899;SDS011;67902;52.154;5.430;2023-05-10T06:27:18;51.72;;;17.60;;
70899;SDS011;67902;52.154;5.430;2023-05-10T06:29:44;48.00;;;17.65;;
70899;SDS011;67902;52.154;5.430;2023-05-10T06:32:11;49.95;;;16.02;;
70899;SDS011;67902;52.154;5.430;2023-05-10T06:34:37;50.60;;;18.08;;
70899;SDS011;67902;52.154;5.430;2023-05-10T06:37:04;50.20;;;15.40;;
70899;SDS011;67902;52.154;5.430;2023-05-10T06:39:30;40.00;;;14.55;;
70899;SDS011;67902;52.154;5.430;2023-05-10T06:41:57;38.13;;;14.57;;
70899;SDS011;67902;52.154;5.430;2023-05-10T06:44:23;39.53;;;14.70;;
70899;SDS011;67902;52.154;5.430;2023-05-10T06:46:49;37.40;;;14.00;;
70899;SDS011;67902;52.154;5.430;2023-05-10T06:49:16;31.52;;;12.80;;
70899;SDS011;67902;52.154;5.430;2023-05-10T06:51:43;33.00;;;11.95;;
70899;SDS011;67902;52.154;5.430;2023-05-10T06:54:09;30.33;;;11.73;;
70899;SDS011;67902;52.154;5.430;2023-05-10T06:56:36;27.58;;;10.98;;
70899;SDS011;67902;52.154;5.430;2023-05-10T06:59:02;26.50;;;10.40;;
70899;SDS011;67902;52.154;5.430;2023-05-10T07:01:29;26.38;;;10.73;;
70899;SDS011;67902;52.154;5.430;2023-05-10T07:03:55;24.52;;;9.55;;
70899;SDS011;67902;52.154;5.430;2023-05-10T07:06:22;22.83;;;9.93;;
70899;SDS011;67902;52.154;5.430;2023-05-10T07:08:59;28.88;;;9.20;;
70899;SDS011;67902;52.154;5.430;2023-05-10T07:11:26;23.42;;;9.10;;
70899;SDS011;67902;52.154;5.430;2023-05-10T07:13:53;20.45;;;8.23;;
70899;SDS011;67902;52.154;5.430;2023-05-10T07:16:19;22.73;;;8.93;;
70899;SDS011;67902;52.154;5.430;2023-05-10T07:18:46;18.45;;;8.20;;
70899;SDS011;67902;52.154;5.430;2023-05-10T07:21:12;20.85;;;8.20;;
70899;SDS011;67902;52.154;5.430;2023-05-10T07:23:39;20.88;;;7.93;;
70899;SDS011;67902;52.154;5.430;2023-05-10T07:26:06;19.55;;;7.25;;
70899;SDS011;67902;52.154;5.430;2023-05-10T07:28:33;20.35;;;8.05;;
70899;SDS011;67902;52.154;5.430;2023-05-10T07:30:59;28.95;;;8.43;;
70899;SDS011;67902;52.154;5.430;2023-05-10T07:33:26;18.83;;;7.80;;
70899;SDS011;67902;52.154;5.430;2023-05-10T07:35:52;19.25;;;7.93;;
70899;SDS011;67902;52.154;5.430;2023-05-10T07:38:19;19.73;;;7.45;;
70899;SDS011;67902;52.154;5.430;2023-05-10T07:40:45;21.67;;;9.00;;
70899;SDS011;67902;52.154;5.430;2023-05-10T07:43:12;21.23;;;8.48;;
70899;SDS011;67902;52.154;5.430;2023-05-10T07:45:38;21.23;;;8.85;;
70899;SDS011;67902;52.154;5.430;2023-05-10T07:48:04;23.85;;;9.70;;
70899;SDS011;67902;52.154;5.430;2023-05-10T07:50:31;22.75;;;9.35;;
70899;SDS011;67902;52.154;5.430;2023-05-10T07:52:58;24.60;;;10.32;;
70899;SDS011;67902;52.154;5.430;2023-05-10T07:55:24;20.30;;;9.20;;
70899;SDS011;67902;52.154;5.430;2023-05-10T07:57:51;24.17;;;8.63;;
70899;SDS011;67902;52.154;5.430;2023-05-10T08:00:17;22.15;;;9.20;;
70899;SDS011;67902;52.154;5.430;2023-05-10T08:02:45;24.15;;;9.13;;
70899;SDS011;67902;52.154;5.430;2023-05-10T08:05:12;21.20;;;8.70;;
70899;SDS011;67902;52.154;5.430;2023-05-10T08:07:39;21.30;;;8.98;;
70899;SDS011;67902;52.154;5.430;2023-05-10T08:10:06;17.48;;;7.07;;
70899;SDS011;67902;52.154;5.430;2023-05-10T08:12:33;18.50;;;7.28;;
70899;SDS011;67902;52.154;5.430;2023-05-10T08:14:59;19.35;;;7.82;;
70899;SDS011;67902;52.154;5.430;2023-05-10T08:17:26;17.02;;;7.50;;
70899;SDS011;67902;52.154;5.430;2023-05-10T08:19:52;18.30;;;7.63;;
70899;SDS011;67902;52.154;5.430;2023-05-10T08:22:18;20.15;;;8.70;;
70899;SDS011;67902;52.154;5.430;2023-05-10T08:24:45;18.73;;;8.70;;
70899;SDS011;67902;52.154;5.430;2023-05-10T08:27:11;20.60;;;8.48;;
70899;SDS011;67902;52.154;5.430;2023-05-10T08:29:38;19.23;;;8.30;;
70899;SDS011;67902;52.154;5.430;2023-05-10T08:32:15;20.63;;;8.60;;
70899;SDS011;67902;52.154;5.430;2023-05-10T08:34:41;20.90;;;8.98;;
70899;SDS011;67902;52.154;5.430;2023-05-10T08:37:08;21.00;;;8.73;;
70899;SDS011;67902;52.154;5.430;2023-05-10T08:39:35;19.92;;;8.88;;
70899;SDS011;67902;52.154;5.430;2023-05-10T08:42:02;18.38;;;8.63;;
70899;SDS011;67902;52.154;5.430;2023-05-10T08:44:31;19.42;;;8.80;;
70899;SDS011;67902;52.154;5.430;2023-05-10T08:47:02;23.00;;;8.55;;
70899;SDS011;67902;52.154;5.430;2023-05-10T08:49:31;23.45;;;8.85;;
70899;SDS011;67902;52.154;5.430;2023-05-10T08:51:59;19.75;;;9.75;;
70899;SDS011;67902;52.154;5.430;2023-05-10T08:54:32;23.90;;;9.98;;
70899;SDS011;67902;52.154;5.430;2023-05-10T08:56:59;21.67;;;10.10;;
70899;SDS011;67902;52.154;5.430;2023-05-10T08:59:26;18.13;;;8.40;;
70899;SDS011;67902;52.154;5.430;2023-05-10T09:01:53;18.92;;;8.55;;
70899;SDS011;67902;52.154;5.430;2023-05-10T09:04:23;21.95;;;9.60;;
70899;SDS011;67902;52.154;5.430;2023-05-10T09:06:50;19.85;;;8.75;;
70899;SDS011;67902;52.154;5.430;2023-05-10T09:09:17;17.58;;;7.40;;
70899;SDS011;67902;52.154;5.430;2023-05-10T09:11:45;16.48;;;6.93;;
70899;SDS011;67902;52.154;5.430;2023-05-10T09:14:12;18.33;;;8.70;;
70899;SDS011;67902;52.154;5.430;2023-05-10T09:16:39;15.23;;;7.70;;
70899;SDS011;67902;52.154;5.430;2023-05-10T09:19:07;16.17;;;7.35;;
70899;SDS011;67902;52.154;5.430;2023-05-10T09:21:35;17.95;;;7.97;;
70899;SDS011;67902;52.154;5.430;2023-05-10T09:24:06;20.65;;;7.68;;
70899;SDS011;67902;52.154;5.430;2023-05-10T09:26:33;15.45;;;6.10;;
70899;SDS011;67902;52.154;5.430;2023-05-10T09:29:02;11.25;;;4.85;;
70899;SDS011;67902;52.154;5.430;2023-05-10T09:36:54;10.95;;;4.15;;
70899;SDS011;67902;52.154;5.430;2023-05-10T09:39:36;10.10;;;3.80;;
70899;SDS011;67902;52.154;5.430;2023-05-10T09:42:04;9.23;;;3.67;;
70899;SDS011;67902;52.154;5.430;2023-05-10T09:44:32;7.80;;;3.15;;
70899;SDS011;67902;52.154;5.430;2023-05-10T09:47:00;7.45;;;3.30;;
70899;SDS011;67902;52.154;5.430;2023-05-10T09:49:27;7.15;;;2.88;;
70899;SDS011;67902;52.154;5.430;2023-05-10T09:51:59;8.70;;;3.38;;
70899;SDS011;67902;52.154;5.430;2023-05-10T09:54:27;7.85;;;2.92;;
70899;SDS011;67902;52.154;5.430;2023-05-10T09:56:53;8.02;;;2.83;;
70899;SDS011;67902;52.154;5.430;2023-05-10T09:59:20;9.60;;;3.45;;
70899;SDS011;67902;52.154;5.430;2023-05-10T10:02:04;10.80;;;3.38;;
70899;SDS011;67902;52.154;5.430;2023-05-10T10:04:31;8.02;;;3.45;;
70899;SDS011;67902;52.154;5.430;2023-05-10T10:06:59;10.45;;;4.10;;
70899;SDS011;67902;52.154;5.430;2023-05-10T10:09:27;8.23;;;3.67;;
70899;SDS011;67902;52.154;5.430;2023-05-10T10:11:54;7.65;;;3.35;;
70899;SDS011;67902;52.154;5.430;2023-05-10T10:14:21;14.48;;;4.53;;
70899;SDS011;67902;52.154;5.430;2023-05-10T10:16:49;10.18;;;4.32;;
70899;SDS011;67902;52.154;5.430;2023-05-10T10:19:35;14.18;;;4.75;;
70899;SDS011;67902;52.154;5.430;2023-05-10T10:22:03;12.65;;;4.95;;
70899;SDS011;67902;52.154;5.430;2023-05-10T10:24:30;11.77;;;5.00;;
70899;SDS011;67902;52.154;5.430;2023-05-10T10:26:57;10.70;;;4.60;;
70899;SDS011;67902;52.154;5.430;2023-05-10T10:29:43;11.30;;;4.95;;
70899;SDS011;67902;52.154;5.430;2023-05-10T10:32:25;12.10;;;4.47;;
70899;SDS011;67902;52.154;5.430;2023-05-10T10:35:01;11.40;;;5.28;;
70899;SDS011;67902;52.154;5.430;2023-05-10T10:37:50;9.77;;;4.97;;
70899;SDS011;67902;52.154;5.430;2023-05-10T10:43:45;11.50;;;4.38;;
70899;SDS011;67902;52.154;5.430;2023-05-10T10:46:12;9.93;;;4.15;;
70899;SDS011;67902;52.154;5.430;2023-05-10T10:48:41;13.35;;;4.88;;
70899;SDS011;67902;52.154;5.430;2023-05-10T10:51:13;10.85;;;4.90;;
70899;SDS011;67902;52.154;5.430;2023-05-10T10:53:40;11.02;;;4.90;;
70899;SDS011;67902;52.154;5.430;2023-05-10T10:56:10;11.95;;;5.03;;
70899;SDS011;67902;52.154;5.430;2023-05-10T10:58:39;10.15;;;4.57;;
70899;SDS011;67902;52.154;5.430;2023-05-10T11:01:16;11.82;;;4.40;;
70899;SDS011;67902;52.154;5.430;2023-05-10T11:06:30;9.70;;;4.25;;
70899;SDS011;67902;52.154;5.430;2023-05-10T11:09:07;10.30;;;3.95;;
70899;SDS011;67902;52.154;5.430;2023-05-10T11:11:35;10.60;;;4.18;;
70899;SDS011;67902;52.154;5.430;2023-05-10T11:14:14;10.88;;;4.35;;
70899;SDS011;67902;52.154;5.430;2023-05-10T11:16:45;10.80;;;4.40;;
70899;SDS011;67902;52.154;5.430;2023-05-10T11:19:13;10.23;;;4.25;;
70899;SDS011;67902;52.154;5.430;2023-05-10T11:24:31;11.77;;;5.00;;
70899;SDS011;67902;52.154;5.430;2023-05-10T11:26:59;11.52;;;4.53;;
70899;SDS011;67902;52.154;5.430;2023-05-10T11:29:26;11.68;;;4.60;;
70899;SDS011;67902;52.154;5.430;2023-05-10T11:31:56;10.95;;;4.82;;
70899;SDS011;67902;52.154;5.430;2023-05-10T11:36:59;11.02;;;4.55;;
70899;SDS011;67902;52.154;5.430;2023-05-10T11:39:26;9.90;;;4.50;;
70899;SDS011;67902;52.154;5.430;2023-05-10T11:41:54;11.93;;;4.20;;
70899;SDS011;67902;52.154;5.430;2023-05-10T11:44:20;12.80;;;4.43;;
70899;SDS011;67902;52.154;5.430;2023-05-10T11:46:47;9.43;;;4.03;;
70899;SDS011;67902;52.154;5.430;2023-05-10T11:49:15;10.85;;;4.30;;
70899;SDS011;67902;52.154;5.430;2023-05-10T11:51:41;9.60;;;3.83;;
70899;SDS011;67902;52.154;5.430;2023-05-10T11:54:10;8.90;;;4.28;;
70899;SDS011;67902;52.154;5.430;2023-05-10T11:56:37;11.90;;;4.30;;
70899;SDS011;67902;52.154;5.430;2023-05-10T11:59:05;9.82;;;4.10;;
70899;SDS011;67902;52.154;5.430;2023-05-10T12:01:32;8.13;;;4.05;;
70899;SDS011;67902;52.154;5.430;2023-05-10T12:04:00;10.48;;;3.83;;
70899;SDS011;67902;52.154;5.430;2023-05-10T12:06:28;10.65;;;3.38;;
70899;SDS011;67902;52.154;5.430;2023-05-10T12:08:57;8.02;;;3.72;;
70899;SDS011;67902;52.154;5.430;2023-05-10T12:11:24;9.13;;;4.00;;
70899;SDS011;67902;52.154;5.430;2023-05-10T12:13:53;8.68;;;3.70;;
70899;SDS011;67902;52.154;5.430;2023-05-10T12:16:21;8.52;;;3.58;;
70899;SDS011;67902;52.154;5.430;2023-05-10T12:18:53;8.35;;;3.38;;
70899;SDS011;67902;52.154;5.430;2023-05-10T12:21:20;9.10;;;3.63;;
70899;SDS011;67902;52.154;5.430;2023-05-10T12:23:50;8.27;;;3.58;;
70899;SDS011;67902;52.154;5.430;2023-05-10T12:26:22;9.38;;;3.42;;
70899;SDS011;67902;52.154;5.430;2023-05-10T12:28:49;9.52;;;3.40;;
70899;SDS011;67902;52.154;5.430;2023-05-10T12:31:15;11.45;;;3.30;;
70899;SDS011;67902;52.154;5.430;2023-05-10T12:33:43;8.55;;;3.28;;
70899;SDS011;67902;52.154;5.430;2023-05-10T12:36:11;7.35;;;2.88;;
70899;SDS011;67902;52.154;5.430;2023-05-10T12:38:40;7.72;;;3.50;;
70899;SDS011;67902;52.154;5.430;2023-05-10T12:41:12;9.00;;;3.05;;
70899;SDS011;67902;52.154;5.430;2023-05-10T12:43:41;7.30;;;3.17;;
70899;SDS011;67902;52.154;5.430;2023-05-10T12:46:08;7.32;;;3.00;;
70899;SDS011;67902;52.154;5.430;2023-05-10T12:48:36;7.78;;;2.97;;
70899;SDS011;67902;52.154;5.430;2023-05-10T12:51:04;9.18;;;3.55;;
70899;SDS011;67902;52.154;5.430;2023-05-10T12:53:31;7.13;;;2.92;;
70899;SDS011;67902;52.154;5.430;2023-05-10T12:55:57;6.90;;;3.30;;
70899;SDS011;67902;52.154;5.430;2023-05-10T12:58:24;8.23;;;3.25;;
70899;SDS011;67902;52.154;5.430;2023-05-10T13:01:01;8.73;;;2.55;;
70899;SDS011;67902;52.154;5.430;2023-05-10T13:03:27;8.13;;;2.80;;
70899;SDS011;67902;52.154;5.430;2023-05-10T13:05:54;5.10;;;2.10;;
70899;SDS011;67902;52.154;5.430;2023-05-10T13:08:20;6.75;;;2.20;;
70899;SDS011;67902;52.154;5.430;2023-05-10T13:10:46;5.97;;;2.05;;
70899;SDS011;67902;52.154;5.430;2023-05-10T13:13:13;6.28;;;2.30;;
70899;SDS011;67902;52.154;5.430;2023-05-10T13:15:40;7.90;;;2.20;;
70899;SDS011;67902;52.154;5.430;2023-05-10T13:18:07;4.90;;;1.98;;
70899;SDS011;67902;52.154;5.430;2023-05-10T13:20:34;5.55;;;2.00;;
70899;SDS011;67902;52.154;5.430;2023-05-10T13:23:01;6.80;;;1.90;;
70899;SDS011;67902;52.154;5.430;2023-05-10T13:25:28;6.07;;;2.40;;
70899;SDS011;67902;52.154;5.430;2023-05-10T13:27:55;5.32;;;2.13;;
70899;SDS011;67902;52.154;5.430;2023-05-10T13:32:55;10.25;;;4.25;;
70899;SDS011;67902;52.154;5.430;2023-05-10T13:35:21;11.85;;;5.10;;
70899;SDS011;67902;52.154;5.430;2023-05-10T13:37:48;11.88;;;4.88;;
70899;SDS011;67902;52.154;5.430;2023-05-10T13:40:14;13.48;;;4.95;;
70899;SDS011;67902;52.154;5.430;2023-05-10T13:42:42;12.48;;;4.40;;
70899;SDS011;67902;52.154;5.430;2023-05-10T13:45:08;12.25;;;4.25;;
70899;SDS011;67902;52.154;5.430;2023-05-10T13:50:02;12.25;;;4.65;;
70899;SDS011;67902;52.154;5.430;2023-05-10T13:52:29;14.80;;;5.25;;
70899;SDS011;67902;52.154;5.430;2023-05-10T13:54:55;11.68;;;4.88;;
70899;SDS011;67902;52.154;5.430;2023-05-10T13:57:23;12.48;;;5.00;;
70899;SDS011;67902;52.154;5.430;2023-05-10T13:59:51;13.75;;;5.60;;
70899;SDS011;67902;52.154;5.430;2023-05-10T14:02:18;13.43;;;5.53;;
70899;SDS011;67902;52.154;5.430;2023-05-10T14:04:47;15.93;;;5.80;;
70899;SDS011;67902;52.154;5.430;2023-05-10T14:07:14;16.75;;;6.10;;
70899;SDS011;67902;52.154;5.430;2023-05-10T14:09:40;13.95;;;5.25;;
70899;SDS011;67902;52.154;5.430;2023-05-10T14:12:15;13.35;;;5.70;;
70899;SDS011;67902;52.154;5.430;2023-05-10T14:14:42;12.68;;;5.25;;
70899;SDS011;67902;52.154;5.430;2023-05-10T14:17:08;12.02;;;4.63;;
70899;SDS011;67902;52.154;5.430;2023-05-10T14:19:37;18.95;;;6.22;;
70899;SDS011;67902;52.154;5.430;2023-05-10T14:22:04;15.10;;;5.30;;
70899;SDS011;67902;52.154;5.430;2023-05-10T14:24:31;12.45;;;5.63;;
70899;SDS011;67902;52.154;5.430;2023-05-10T14:30:01;12.45;;;5.38;;
70899;SDS011;67902;52.154;5.430;2023-05-10T14:32:27;13.82;;;5.57;;
70899;SDS011;67902;52.154;5.430;2023-05-10T14:34:54;14.55;;;5.63;;
70899;SDS011;67902;52.154;5.430;2023-05-10T14:37:20;14.73;;;5.20;;
70899;SDS011;67902;52.154;5.430;2023-05-10T14:39:47;14.55;;;5.40;;
70899;SDS011;67902;52.154;5.430;2023-05-10T14:42:13;12.77;;;5.20;;
70899;SDS011;67902;52.154;5.430;2023-05-10T14:44:40;11.77;;;5.25;;
70899;SDS011;67902;52.154;5.430;2023-05-10T14:47:06;16.15;;;5.10;;
70899;SDS011;67902;52.154;5.430;2023-05-10T14:49:33;11.88;;;5.20;;
70899;SDS011;67902;52.154;5.430;2023-05-10T14:52:00;14.13;;;5.50;;
70899;SDS011;67902;52.154;5.430;2023-05-10T14:54:26;15.48;;;5.50;;
70899;SDS011;67902;52.154;5.430;2023-05-10T14:56:53;14.05;;;6.03;;
70899;SDS011;67902;52.154;5.430;2023-05-10T14:59:20;14.70;;;5.53;;
70899;SDS011;67902;52.154;5.430;2023-05-10T15:01:46;14.38;;;5.72;;
70899;SDS011;67902;52.154;5.430;2023-05-10T15:04:13;16.15;;;6.07;;
70899;SDS011;67902;52.154;5.430;2023-05-10T15:06:42;20.00;;;6.20;;
70899;SDS011;67902;52.154;5.430;2023-05-10T15:09:09;15.43;;;6.05;;
70899;SDS011;67902;52.154;5.430;2023-05-10T15:11:35;15.05;;;6.35;;
70899;SDS011;67902;52.154;5.430;2023-05-10T15:14:02;16.60;;;5.95;;
70899;SDS011;67902;52.154;5.430;2023-05-10T15:16:28;13.73;;;5.88;;
70899;SDS011;67902;52.154;5.430;2023-05-10T15:18:56;16.73;;;6.13;;
70899;SDS011;67902;52.154;5.430;2023-05-10T15:21:22;17.63;;;7.00;;
70899;SDS011;67902;52.154;5.430;2023-05-10T15:23:49;13.65;;;6.18;;